createdAt,value
2018-07-26T00:01:51.370Z,3.97
2018-07-26T00:04:19.631Z,4.03
2018-07-26T00:06:47.799Z,3.93
2018-07-26T00:09:15.911Z,4.10
2018-07-26T00:11:44.049Z,4.23
2018-07-26T00:14:11.929Z,4.00
2018-07-26T00:16:40.294Z,3.97
2018-07-26T00:19:08.564Z,4.03
2018-07-26T00:21:36.718Z,4.07
2018-07-26T00:24:04.945Z,4.50
2018-07-26T00:26:33.383Z,3.33
2018-07-26T00:29:01.763Z,4.07
2018-07-26T00:31:29.963Z,3.80
2018-07-26T00:33:58.120Z,3.87
2018-07-26T00:36:26.068Z,4.13
2018-07-26T00:38:54.326Z,4.53
2018-07-26T00:41:22.613Z,3.77
2018-07-26T00:43:50.725Z,4.17
2018-07-26T00:46:19.358Z,4.00
2018-07-26T00:48:47.720Z,4.00
2018-07-26T00:51:15.807Z,3.80
2018-07-26T00:53:43.973Z,3.70
2018-07-26T00:56:12.156Z,3.80
2018-07-26T00:58:40.320Z,3.83
2018-07-26T01:01:08.639Z,3.63
2018-07-26T01:03:36.820Z,3.70
2018-07-26T01:06:05.004Z,3.80
2018-07-26T01:08:33.162Z,3.73
2018-07-26T01:11:01.308Z,4.00
2018-07-26T01:13:29.577Z,4.00
2018-07-26T01:15:57.730Z,3.80
2018-07-26T01:18:25.871Z,3.73
2018-07-26T01:20:54.031Z,3.73
2018-07-26T01:23:22.175Z,3.80
2018-07-26T01:25:50.369Z,3.60
2018-07-26T01:28:18.586Z,3.70
2018-07-26T01:30:46.750Z,3.63
2018-07-26T01:33:14.938Z,3.90
2018-07-26T01:35:43.100Z,4.00
2018-07-26T01:38:11.423Z,3.53
2018-07-26T01:40:39.655Z,3.70
2018-07-26T01:43:43.485Z,3.50
2018-07-26T01:46:11.571Z,3.73
2018-07-26T01:48:39.686Z,3.30
2018-07-26T01:51:08.174Z,3.43
2018-07-26T01:53:36.329Z,3.60
2018-07-26T01:56:04.537Z,3.93
2018-07-26T01:58:32.629Z,3.40
2018-07-26T02:01:00.485Z,3.80
2018-07-26T02:03:28.736Z,3.80
2018-07-26T02:05:56.818Z,3.60
2018-07-26T02:08:25.192Z,3.73
2018-07-26T02:10:53.328Z,3.80
2018-07-26T02:13:21.477Z,3.30
2018-07-26T02:15:49.356Z,3.80
2018-07-26T02:18:17.597Z,3.33
2018-07-26T02:20:45.786Z,3.20
2018-07-26T02:23:13.901Z,3.60
2018-07-26T02:25:42.045Z,3.67
2018-07-26T02:28:10.291Z,3.23
2018-07-26T02:30:38.414Z,3.80
2018-07-26T02:33:06.729Z,3.27
2018-07-26T02:35:34.865Z,3.73
2018-07-26T02:38:02.993Z,3.20
2018-07-26T02:40:31.180Z,3.87
2018-07-26T02:43:00.120Z,3.40
2018-07-26T02:45:28.293Z,3.63
2018-07-26T02:47:56.437Z,3.53
2018-07-26T02:50:24.573Z,2.90
2018-07-26T02:52:52.690Z,3.23
2018-07-26T02:55:20.916Z,3.30
2018-07-26T02:57:49.153Z,3.40
2018-07-26T03:00:17.420Z,3.17
2018-07-26T03:02:45.617Z,2.97
2018-07-26T03:05:13.717Z,3.07
2018-07-26T03:07:41.894Z,2.80
2018-07-26T03:10:10.157Z,2.70
2018-07-26T03:12:38.309Z,2.50
2018-07-26T03:15:07.489Z,3.17
2018-07-26T03:17:35.590Z,2.90
2018-07-26T03:20:04.207Z,2.77
2018-07-26T03:22:32.419Z,2.87
2018-07-26T03:25:00.520Z,3.07
2018-07-26T03:27:28.592Z,2.77
2018-07-26T03:29:56.672Z,2.73
2018-07-26T03:32:24.762Z,2.70
2018-07-26T03:34:52.858Z,2.63
2018-07-26T03:37:21.049Z,3.10
2018-07-26T03:39:49.180Z,2.90
2018-07-26T03:42:17.375Z,3.10
2018-07-26T03:44:45.246Z,2.70
2018-07-26T03:47:13.472Z,3.47
2018-07-26T03:49:41.692Z,2.90
2018-07-26T03:52:09.781Z,3.10
2018-07-26T03:54:37.676Z,3.03
2018-07-26T03:57:05.770Z,3.27
2018-07-26T03:59:33.857Z,3.07
2018-07-26T04:02:01.981Z,3.27
2018-07-26T04:04:30.109Z,2.97
2018-07-26T04:06:58.322Z,3.20
2018-07-26T04:09:27.507Z,3.07
2018-07-26T04:11:55.465Z,2.70
2018-07-26T04:14:23.555Z,2.90
2018-07-26T04:16:51.723Z,3.07
2018-07-26T04:19:19.822Z,2.80
2018-07-26T04:21:48.003Z,2.63
2018-07-26T04:24:16.756Z,2.90
2018-07-26T04:26:44.602Z,2.93
2018-07-26T04:29:12.718Z,3.00
2018-07-26T04:31:40.931Z,3.00
2018-07-26T04:34:09.018Z,2.97
2018-07-26T04:36:37.110Z,2.53
2018-07-26T04:39:08.033Z,2.53
2018-07-26T04:41:36.223Z,2.93
2018-07-26T04:44:04.430Z,2.70
2018-07-26T04:46:33.249Z,2.90
2018-07-26T04:49:01.537Z,2.87
2018-07-26T04:51:29.560Z,2.73
2018-07-26T04:53:57.743Z,2.90
2018-07-26T04:56:25.925Z,2.70
2018-07-26T04:58:54.090Z,3.00
2018-07-26T05:01:22.317Z,3.27
2018-07-26T05:03:50.438Z,2.77
2018-07-26T05:06:18.620Z,3.03
2018-07-26T05:08:46.810Z,3.10
2018-07-26T05:11:15.000Z,3.13
2018-07-26T05:13:43.281Z,2.50
2018-07-26T05:16:11.386Z,3.10
2018-07-26T05:18:39.573Z,2.83
2018-07-26T05:21:07.738Z,2.97
2018-07-26T05:23:35.627Z,2.83
2018-07-26T05:26:04.226Z,2.97
2018-07-26T05:28:32.352Z,2.73
2018-07-26T05:31:00.681Z,2.50
2018-07-26T05:33:28.882Z,3.13
2018-07-26T05:35:57.107Z,2.77
2018-07-26T05:38:25.292Z,2.93
2018-07-26T05:40:53.530Z,2.70
2018-07-26T05:43:21.975Z,2.80
2018-07-26T05:45:50.126Z,2.80
2018-07-26T05:48:18.585Z,2.70
2018-07-26T05:50:46.759Z,2.80
2018-07-26T05:53:15.071Z,3.10
2018-07-26T05:55:43.436Z,2.77
2018-07-26T05:58:11.825Z,2.80
2018-07-26T06:00:40.143Z,2.87
2018-07-26T06:03:08.466Z,2.80
2018-07-26T06:05:36.874Z,2.97
2018-07-26T06:08:05.361Z,2.80
2018-07-26T06:10:33.678Z,2.47
2018-07-26T06:13:01.896Z,2.90
2018-07-26T06:15:30.478Z,2.47
2018-07-26T06:17:58.745Z,2.67
2018-07-26T06:20:26.898Z,2.50
2018-07-26T06:22:55.127Z,2.50
2018-07-26T06:25:23.218Z,2.87
2018-07-26T06:27:51.656Z,2.20
2018-07-26T06:30:19.781Z,2.80
2018-07-26T06:32:47.910Z,2.80
2018-07-26T06:35:16.036Z,2.37
2018-07-26T06:37:44.149Z,2.37
2018-07-26T06:40:12.286Z,2.70
2018-07-26T06:42:40.371Z,2.20
2018-07-26T06:45:09.614Z,2.93
2018-07-26T06:47:37.695Z,2.93
2018-07-26T06:50:07.300Z,2.30
2018-07-26T06:52:35.539Z,2.50
2018-07-26T06:55:03.815Z,2.60
2018-07-26T06:57:31.961Z,2.43
2018-07-26T07:02:34.973Z,2.70
2018-07-26T07:05:03.232Z,2.70
2018-07-26T07:07:31.373Z,2.90
2018-07-26T07:09:59.523Z,2.60
2018-07-26T07:12:28.393Z,2.80
2018-07-26T07:14:56.492Z,2.50
2018-07-26T07:17:24.600Z,2.83
2018-07-26T07:19:52.680Z,3.13
2018-07-26T07:22:20.780Z,2.67
2018-07-26T07:24:48.904Z,2.67
2018-07-26T07:27:17.065Z,3.20
2018-07-26T07:29:45.224Z,3.03
2018-07-26T07:32:13.396Z,2.73
2018-07-26T07:34:41.935Z,2.73
2018-07-26T07:37:10.255Z,3.00
2018-07-26T07:39:38.359Z,2.90
2018-07-26T07:42:06.534Z,3.10
2018-07-26T07:44:34.795Z,2.70
2018-07-26T07:47:02.867Z,3.20
2018-07-26T07:49:30.988Z,2.70
2018-07-26T07:51:59.184Z,2.70
2018-07-26T07:54:27.224Z,3.00
2018-07-26T07:56:55.428Z,3.07
2018-07-26T07:59:23.565Z,2.80
2018-07-26T08:01:51.682Z,2.97
2018-07-26T08:04:19.815Z,2.70
2018-07-26T08:06:48.007Z,2.87
2018-07-26T08:09:16.145Z,3.23
2018-07-26T08:11:44.264Z,2.97
2018-07-26T08:14:12.367Z,2.90
2018-07-26T08:16:40.502Z,2.47
2018-07-26T08:19:08.551Z,2.97
2018-07-26T08:21:36.743Z,3.03
2018-07-26T08:24:04.936Z,2.77
2018-07-26T08:26:32.965Z,3.40
2018-07-26T08:29:01.052Z,3.10
2018-07-26T08:31:29.175Z,3.17
2018-07-26T08:33:57.328Z,3.23
2018-07-26T08:36:25.560Z,3.07
2018-07-26T08:38:53.676Z,3.30
2018-07-26T08:41:21.882Z,3.57
2018-07-26T08:43:50.044Z,3.13
2018-07-26T08:46:18.281Z,3.10
2018-07-26T08:48:46.350Z,3.57
2018-07-26T08:51:14.467Z,3.20
2018-07-26T08:53:42.638Z,3.47
2018-07-26T08:56:10.702Z,3.60
2018-07-26T08:58:39.596Z,3.13
2018-07-26T09:01:07.773Z,3.43
2018-07-26T09:03:35.865Z,2.80
2018-07-26T09:06:03.991Z,3.43
2018-07-26T09:08:32.132Z,3.57
2018-07-26T09:11:00.390Z,3.00
2018-07-26T09:13:28.511Z,2.90
2018-07-26T09:15:56.701Z,3.53
2018-07-26T09:18:24.536Z,3.60
2018-07-26T09:20:52.680Z,3.07
2018-07-26T09:23:20.956Z,3.37
2018-07-26T09:25:49.097Z,3.30
2018-07-26T09:28:17.228Z,3.40
2018-07-26T09:30:45.274Z,3.30
2018-07-26T09:33:13.374Z,3.50
2018-07-26T09:35:41.538Z,3.60
2018-07-26T09:38:09.816Z,3.33
2018-07-26T09:40:37.933Z,3.67
2018-07-26T09:43:06.075Z,3.27
2018-07-26T09:45:34.177Z,3.30
2018-07-26T09:48:02.493Z,3.50
2018-07-26T09:50:30.678Z,3.40
2018-07-26T09:52:58.758Z,3.62
2018-07-26T09:55:26.819Z,3.15
2018-07-26T09:57:55.057Z,3.05
2018-07-26T10:00:28.634Z,3.35
2018-07-26T10:02:56.695Z,3.25
2018-07-26T10:05:24.866Z,3.55
2018-07-26T10:07:53.023Z,3.58
2018-07-26T10:10:21.153Z,3.25
2018-07-26T10:12:49.239Z,3.77
2018-07-26T10:15:17.352Z,3.30
2018-07-26T10:17:45.491Z,3.55
2018-07-26T10:20:13.628Z,3.20
2018-07-26T10:22:41.716Z,3.12
2018-07-26T10:25:09.806Z,3.87
2018-07-26T10:27:37.945Z,3.25
2018-07-26T10:30:06.662Z,3.60
2018-07-26T10:32:34.775Z,3.70
2018-07-26T10:35:02.988Z,3.35
2018-07-26T10:37:31.098Z,3.30
2018-07-26T10:39:59.315Z,4.05
2018-07-26T10:42:28.320Z,3.30
2018-07-26T10:44:56.408Z,3.15
2018-07-26T10:47:24.528Z,3.80
2018-07-26T10:49:52.710Z,3.98
2018-07-26T10:52:20.854Z,3.27
2018-07-26T10:54:49.062Z,3.20
2018-07-26T10:57:17.164Z,3.20
2018-07-26T10:59:45.018Z,3.27
2018-07-26T11:02:13.137Z,3.20
2018-07-26T11:04:41.244Z,3.20
2018-07-26T11:07:09.481Z,3.08
2018-07-26T11:09:37.724Z,3.45
2018-07-26T11:12:05.977Z,2.80
2018-07-26T11:14:34.165Z,2.80
2018-07-26T11:17:02.289Z,3.10
2018-07-26T11:19:30.406Z,3.23
2018-07-26T11:21:58.526Z,3.17
2018-07-26T11:24:26.651Z,3.20
2018-07-26T11:26:54.745Z,5.77
2018-07-26T11:29:22.921Z,4.17
2018-07-26T11:31:51.125Z,5.23
2018-07-26T11:34:19.258Z,4.53
2018-07-26T11:36:47.354Z,4.60
2018-07-26T11:39:15.508Z,4.10
2018-07-26T11:41:43.655Z,4.83
2018-07-26T11:44:11.719Z,4.87
2018-07-26T11:46:39.822Z,3.87
2018-07-26T11:49:07.997Z,4.27
2018-07-26T11:51:36.113Z,4.33
2018-07-26T11:54:04.227Z,4.20
2018-07-26T11:56:32.374Z,4.83
2018-07-26T11:59:00.495Z,4.17
2018-07-26T12:01:28.643Z,4.40
2018-07-26T12:03:56.714Z,4.50
2018-07-26T12:06:24.846Z,3.57
2018-07-26T12:08:52.925Z,4.33
2018-07-26T12:11:21.005Z,4.10
2018-07-26T12:13:49.177Z,4.43
2018-07-26T12:16:17.324Z,3.40
2018-07-26T12:18:45.428Z,3.20
2018-07-26T12:21:13.560Z,3.30
2018-07-26T12:23:41.640Z,3.10
2018-07-26T12:26:09.954Z,3.37
2018-07-26T12:28:38.148Z,3.70
2018-07-26T12:31:06.421Z,3.10
2018-07-26T12:33:34.518Z,3.03
2018-07-26T12:36:02.643Z,2.80
2018-07-26T12:38:30.770Z,2.90
2018-07-26T12:40:58.922Z,2.67
2018-07-26T12:43:27.338Z,3.23
2018-07-26T12:45:55.171Z,2.90
2018-07-26T12:48:23.326Z,3.53
2018-07-26T12:50:51.414Z,3.50
2018-07-26T12:53:19.522Z,3.43
2018-07-26T12:55:47.753Z,4.10
2018-07-26T12:58:15.769Z,3.50
2018-07-26T13:00:43.902Z,3.40
2018-07-26T13:03:12.012Z,3.37
2018-07-26T13:05:40.148Z,3.53
2018-07-26T13:08:08.288Z,2.97
2018-07-26T13:10:36.488Z,3.30
2018-07-26T13:13:04.635Z,3.10
2018-07-26T13:15:32.703Z,3.03
2018-07-26T13:18:00.668Z,3.27
2018-07-26T13:20:28.832Z,3.03
2018-07-26T13:22:56.922Z,2.90
2018-07-26T13:25:25.054Z,3.07
2018-07-26T13:27:53.187Z,3.37
2018-07-26T13:30:21.328Z,3.03
2018-07-26T13:32:49.482Z,3.30
2018-07-26T13:35:17.555Z,3.30
2018-07-26T13:37:45.694Z,3.70
2018-07-26T13:40:13.836Z,3.40
2018-07-26T13:42:42.035Z,3.03
2018-07-26T13:45:10.466Z,3.10
2018-07-26T13:47:38.716Z,3.30
2018-07-26T13:50:06.856Z,3.10
2018-07-26T13:52:34.929Z,3.00
2018-07-26T13:55:03.109Z,3.30
2018-07-26T13:57:31.211Z,3.13
2018-07-26T13:59:59.324Z,3.30
2018-07-26T14:02:27.554Z,3.10
2018-07-26T14:04:55.729Z,2.70
2018-07-26T14:07:23.893Z,3.10
2018-07-26T14:09:52.017Z,3.37
2018-07-26T14:12:20.070Z,3.10
2018-07-26T14:14:48.224Z,3.30
2018-07-26T14:17:16.369Z,3.50
2018-07-26T14:19:44.472Z,3.37
2018-07-26T14:22:12.596Z,2.87
2018-07-26T14:24:40.718Z,3.20
2018-07-26T14:27:08.895Z,3.07
2018-07-26T14:29:37.109Z,3.00
2018-07-26T14:32:05.283Z,2.67
2018-07-26T14:34:33.458Z,3.10
2018-07-26T14:37:01.551Z,3.60
2018-07-26T14:39:29.706Z,3.23
2018-07-26T14:41:57.847Z,3.33
2018-07-26T14:44:25.931Z,3.30
2018-07-26T14:46:54.326Z,2.80
2018-07-26T14:49:22.456Z,3.23
2018-07-26T14:51:50.621Z,3.50
2018-07-26T14:54:18.752Z,3.43
2018-07-26T14:56:46.846Z,3.50
2018-07-26T14:59:14.965Z,3.37
2018-07-26T15:01:43.095Z,3.87
2018-07-26T15:04:11.208Z,3.50
2018-07-26T15:06:39.615Z,4.03
2018-07-26T15:09:09.232Z,3.10
2018-07-26T15:11:37.659Z,3.30
2018-07-26T15:14:05.875Z,3.67
2018-07-26T15:16:34.133Z,3.20
2018-07-26T15:19:02.210Z,3.47
2018-07-26T15:21:30.319Z,3.33
2018-07-26T15:23:58.455Z,3.33
2018-07-26T15:26:26.520Z,3.60
2018-07-26T15:28:54.657Z,3.43
2018-07-26T15:31:22.768Z,3.43
2018-07-26T15:33:50.860Z,3.37
2018-07-26T15:36:18.962Z,3.17
2018-07-26T15:38:47.101Z,3.10
2018-07-26T15:41:15.233Z,3.80
2018-07-26T15:43:43.463Z,3.43
2018-07-26T15:46:11.624Z,3.47
2018-07-26T15:48:39.882Z,3.10
2018-07-26T15:51:08.119Z,2.63
2018-07-26T15:53:36.241Z,3.03
2018-07-26T15:56:04.846Z,3.60
2018-07-26T15:58:32.955Z,3.43
2018-07-26T16:01:01.117Z,3.00
2018-07-26T16:03:29.274Z,3.23
2018-07-26T16:05:57.500Z,3.27
2018-07-26T16:08:25.639Z,3.50
2018-07-26T16:10:53.901Z,2.83
2018-07-26T16:13:22.010Z,3.10
2018-07-26T16:15:50.172Z,3.40
2018-07-26T16:18:18.305Z,3.27
2018-07-26T16:20:46.505Z,3.80
2018-07-26T16:23:14.592Z,4.03
2018-07-26T16:25:42.736Z,3.67
2018-07-26T16:28:10.954Z,3.10
2018-07-26T16:30:39.125Z,3.60
2018-07-26T16:33:07.209Z,3.00
2018-07-26T16:35:35.434Z,3.50
2018-07-26T16:38:03.501Z,3.43
2018-07-26T16:40:31.653Z,3.40
2018-07-26T16:42:59.798Z,3.50
2018-07-26T16:45:28.447Z,3.37
2018-07-26T16:47:56.500Z,3.10
2018-07-26T16:50:24.584Z,3.47
2018-07-26T16:52:52.679Z,3.30
2018-07-26T16:55:20.793Z,3.17
2018-07-26T16:57:49.721Z,3.20
2018-07-26T17:00:18.036Z,3.13
2018-07-26T17:02:46.148Z,3.73
2018-07-26T17:05:14.248Z,3.40
2018-07-26T17:07:42.450Z,3.10
2018-07-26T17:10:10.686Z,3.43
2018-07-26T17:12:38.906Z,3.43
2018-07-26T17:15:08.212Z,3.30
2018-07-26T17:17:36.389Z,3.30
2018-07-26T17:20:05.662Z,3.30
2018-07-26T17:22:33.756Z,3.53
2018-07-26T17:25:01.897Z,3.50
2018-07-26T17:27:30.248Z,3.07
2018-07-26T17:29:58.401Z,3.30
2018-07-26T17:32:26.682Z,3.20
2018-07-26T17:34:55.336Z,3.30
2018-07-26T17:37:23.440Z,3.30
2018-07-26T17:39:51.761Z,7.40
2018-07-26T17:42:19.725Z,14.17
2018-07-26T17:44:49.364Z,20.93
2018-07-26T17:47:17.504Z,19.63
2018-07-26T17:49:45.646Z,21.97
2018-07-26T17:52:13.779Z,7.47
2018-07-26T17:54:41.906Z,30.67
2018-07-26T17:57:10.113Z,16.37
2018-07-26T17:59:37.961Z,19.23
2018-07-26T18:02:06.907Z,9.30
2018-07-26T18:04:35.089Z,5.33
2018-07-26T18:07:03.181Z,3.37
2018-07-26T18:09:31.337Z,4.30
2018-07-26T18:11:59.449Z,6.50
2018-07-26T18:14:27.366Z,5.53
2018-07-26T18:16:55.457Z,6.47
2018-07-26T18:19:23.640Z,4.70
2018-07-26T18:21:51.781Z,4.33
2018-07-26T18:24:19.898Z,3.70
2018-07-26T18:26:48.070Z,3.80
2018-07-26T18:29:15.968Z,3.50
2018-07-26T18:31:44.055Z,3.47
2018-07-26T18:34:12.299Z,3.73
2018-07-26T18:36:40.606Z,3.53
2018-07-26T18:39:11.133Z,4.00
2018-07-26T18:41:39.513Z,4.20
2018-07-26T18:44:08.749Z,4.57
2018-07-26T18:46:37.828Z,4.63
2018-07-26T18:49:06.840Z,4.27
2018-07-26T18:51:35.232Z,4.20
2018-07-26T18:54:04.697Z,4.77
2018-07-26T18:56:33.177Z,4.57
2018-07-26T18:59:02.078Z,5.00
2018-07-26T19:01:30.254Z,5.13
2018-07-26T19:03:59.113Z,4.73
2018-07-26T19:06:27.152Z,4.67
2018-07-26T19:08:55.389Z,4.63
2018-07-26T19:11:24.064Z,4.30
2018-07-26T19:13:52.188Z,5.30
2018-07-26T19:16:20.245Z,4.77
2018-07-26T19:18:48.308Z,4.50
2018-07-26T19:21:16.462Z,4.70
2018-07-26T19:23:44.655Z,4.50
2018-07-26T19:26:13.432Z,4.30
2018-07-26T19:28:41.528Z,4.50
2018-07-26T19:31:09.581Z,4.43
2018-07-26T19:33:37.651Z,4.90
2018-07-26T19:36:06.105Z,4.20
2018-07-26T19:38:34.282Z,4.23
2018-07-26T19:41:02.402Z,3.90
2018-07-26T19:43:30.549Z,4.07
2018-07-26T19:45:58.762Z,4.40
2018-07-26T19:48:26.973Z,4.57
2018-07-26T19:50:55.047Z,4.70
2018-07-26T19:53:23.190Z,4.70
2018-07-26T19:55:51.310Z,4.57
2018-07-26T19:58:19.497Z,4.63
2018-07-26T20:00:47.927Z,4.17
2018-07-26T20:03:16.225Z,4.50
2018-07-26T20:05:44.366Z,4.50
2018-07-26T20:08:12.513Z,4.80
2018-07-26T20:10:40.675Z,5.10
2018-07-26T20:13:09.170Z,5.13
2018-07-26T20:15:37.294Z,4.87
2018-07-26T20:18:05.913Z,5.10
2018-07-26T20:20:34.057Z,5.27
2018-07-26T20:23:02.201Z,5.37
2018-07-26T20:25:30.309Z,5.03
2018-07-26T20:27:58.506Z,5.03
2018-07-26T20:30:26.966Z,5.33
2018-07-26T20:32:55.491Z,5.20
2018-07-26T20:35:23.549Z,5.93
2018-07-26T20:37:51.415Z,5.97
2018-07-26T20:40:19.604Z,5.60
2018-07-26T20:42:47.576Z,5.70
2018-07-26T20:45:15.810Z,5.83
2018-07-26T20:47:43.908Z,5.53
2018-07-26T20:50:12.034Z,5.67
2018-07-26T20:52:40.136Z,5.53
2018-07-26T20:55:08.329Z,5.67
2018-07-26T20:57:36.519Z,6.17
2018-07-26T21:00:05.809Z,5.43
2018-07-26T21:02:33.971Z,5.53
2018-07-26T21:05:02.058Z,5.53
2018-07-26T21:07:30.194Z,5.10
2018-07-26T21:09:58.285Z,5.00
2018-07-26T21:12:26.372Z,4.80
2018-07-26T21:14:54.212Z,5.10
2018-07-26T21:17:22.369Z,4.57
2018-07-26T21:19:50.488Z,4.80
2018-07-26T21:22:18.573Z,4.83
2018-07-26T21:24:46.694Z,4.70
2018-07-26T21:27:14.778Z,4.20
2018-07-26T21:29:42.873Z,4.70
2018-07-26T21:32:11.071Z,4.20
2018-07-26T21:34:39.194Z,4.80
2018-07-26T21:37:07.394Z,4.63
2018-07-26T21:39:35.507Z,4.13
2018-07-26T21:42:03.627Z,4.33
2018-07-26T21:44:31.549Z,4.20
2018-07-26T21:46:59.647Z,3.93
2018-07-26T21:49:27.922Z,3.90
2018-07-26T21:51:55.984Z,3.77
2018-07-26T21:54:24.155Z,3.30
2018-07-26T21:56:52.302Z,3.13
2018-07-26T21:59:20.303Z,3.63
2018-07-26T22:01:48.451Z,3.43
2018-07-26T22:04:16.569Z,3.30
2018-07-26T22:06:44.775Z,3.03
2018-07-26T22:09:12.673Z,3.57
2018-07-26T22:11:40.821Z,3.13
2018-07-26T22:14:08.991Z,3.80
2018-07-26T22:16:37.121Z,4.20
2018-07-26T22:19:05.343Z,3.80
2018-07-26T22:21:33.266Z,4.30
2018-07-26T22:24:01.421Z,4.43
2018-07-26T22:26:29.560Z,3.97
2018-07-26T22:28:57.505Z,3.80
2018-07-26T22:31:25.828Z,4.10
2018-07-26T22:33:53.949Z,4.27
2018-07-26T22:36:22.102Z,3.43
2018-07-26T22:38:50.596Z,3.43
2018-07-26T22:41:18.704Z,3.00
2018-07-26T22:43:46.797Z,3.00
2018-07-26T22:46:14.932Z,3.10
2018-07-26T22:48:43.051Z,3.20
2018-07-26T22:51:11.333Z,3.20
2018-07-26T22:53:39.549Z,3.20
2018-07-26T22:56:07.701Z,3.47
2018-07-26T22:58:35.816Z,3.10
2018-07-26T23:01:04.105Z,3.60
2018-07-26T23:03:31.983Z,3.40
2018-07-26T23:06:00.166Z,2.83
2018-07-26T23:08:28.265Z,3.10
2018-07-26T23:10:56.395Z,3.50
2018-07-26T23:13:24.228Z,3.43
2018-07-26T23:15:52.955Z,3.43
2018-07-26T23:18:20.848Z,3.43
2018-07-26T23:20:48.970Z,3.67
2018-07-26T23:23:17.083Z,3.80
2018-07-26T23:25:45.246Z,3.50
2018-07-26T23:28:13.076Z,3.60
2018-07-26T23:30:41.214Z,3.23
2018-07-26T23:33:09.345Z,3.33
2018-07-26T23:35:37.438Z,3.77
2018-07-26T23:38:06.314Z,3.83
2018-07-26T23:40:34.413Z,3.47
2018-07-26T23:43:02.527Z,3.20
2018-07-26T23:45:30.650Z,3.40
2018-07-26T23:47:58.794Z,3.80
2018-07-26T23:50:27.078Z,3.50
2018-07-26T23:52:54.965Z,3.33
2018-07-26T23:55:23.053Z,3.57
2018-07-26T23:57:51.144Z,3.83
